sensor_id;sensor_type;location;lat;lon;timestamp;pressure;altitude;pressure_sealevel;temperature;humidity
12624;BME280;6377;42.836;23.998;2023-05-25T00:00:07;95593.03;;;15.53;100.00
12624;BME280;6377;42.836;23.998;2023-05-25T00:02:35;95625.41;;;15.70;100.00
12624;BME280;6377;42.836;23.998;2023-05-25T00:05:02;95579.97;;;15.32;100.00
12624;BME280;6377;42.836;23.998;2023-05-25T00:07:31;95623.31;;;15.72;100.00
12624;BME280;6377;42.836;23.998;2023-05-25T00:09:58;95623.06;;;15.87;100.00
12624;BME280;6377;42.836;23.998;2023-05-25T00:12:26;95623.66;;;15.89;100.00
12624;BME280;6377;42.836;23.998;2023-05-25T00:14:53;95623.19;;;16.05;100.00
12624;BME280;6377;42.836;23.998;2023-05-25T00:17:20;95619.97;;;16.27;100.00
12624;BME280;6377;42.836;23.998;2023-05-25T00:19:49;95616.56;;;16.45;100.00
12624;BME280;6377;42.836;23.998;2023-05-25T00:22:16;95615.03;;;16.62;100.00
12624;BME280;6377;42.836;23.998;2023-05-25T00:24:46;95566.28;;;16.42;100.00
12624;BME280;6377;42.836;23.998;2023-05-25T00:27:13;95619.00;;;16.85;100.00
12624;BME280;6377;42.836;23.998;2023-05-25T00:29:41;95562.44;;;16.63;100.00
12624;BME280;6377;42.836;23.998;2023-05-25T00:32:08;95616.66;;;17.13;100.00
12624;BME280;6377;42.836;23.998;2023-05-25T00:34:35;95611.66;;;17.23;100.00
12624;BME280;6377;42.836;23.998;2023-05-25T00:37:03;95617.63;;;17.18;100.00
12624;BME280;6377;42.836;23.998;2023-05-25T00:39:30;95623.72;;;17.07;100.00
12624;BME280;6377;42.836;23.998;2023-05-25T00:42:01;95621.25;;;17.06;100.00
12624;BME280;6377;42.836;23.998;2023-05-25T00:44:29;95618.31;;;17.14;100.00
12624;BME280;6377;42.836;23.998;2023-05-25T00:46:56;95614.00;;;17.13;100.00
12624;BME280;6377;42.836;23.998;2023-05-25T00:49:24;95625.78;;;17.05;100.00
12624;BME280;6377;42.836;23.998;2023-05-25T00:51:52;95621.53;;;16.98;100.00
12624;BME280;6377;42.836;23.998;2023-05-25T00:54:19;95625.91;;;16.92;100.00
12624;BME280;6377;42.836;23.998;2023-05-25T00:56:50;95618.56;;;16.88;100.00
12624;BME280;6377;42.836;23.998;2023-05-25T00:59:25;95619.94;;;16.65;100.00
12624;BME280;6377;42.836;23.998;2023-05-25T01:01:56;95615.78;;;16.07;100.00
12624;BME280;6377;42.836;23.998;2023-05-25T01:04:26;95627.31;;;15.94;100.00
12624;BME280;6377;42.836;23.998;2023-05-25T01:06:55;95627.56;;;15.93;100.00
12624;BME280;6377;42.836;23.998;2023-05-25T01:09:26;95599.50;;;15.77;100.00
12624;BME280;6377;42.836;23.998;2023-05-25T01:11:56;95631.34;;;16.10;100.00
12624;BME280;6377;42.836;23.998;2023-05-25T01:14:26;95629.44;;;16.23;100.00
12624;BME280;6377;42.836;23.998;2023-05-25T01:16:54;95587.72;;;15.98;100.00
12624;BME280;6377;42.836;23.998;2023-05-25T01:19:23;95632.84;;;16.37;100.00
12624;BME280;6377;42.836;23.998;2023-05-25T01:21:58;95635.06;;;16.47;100.00
12624;BME280;6377;42.836;23.998;2023-05-25T01:24:30;95640.78;;;16.12;100.00
12624;BME280;6377;42.836;23.998;2023-05-25T01:27:03;95637.63;;;15.91;100.00
12624;BME280;6377;42.836;23.998;2023-05-25T01:29:34;95634.59;;;15.74;100.00
12624;BME280;6377;42.836;23.998;2023-05-25T01:32:03;95647.06;;;15.87;100.00
12624;BME280;6377;42.836;23.998;2023-05-25T01:34:31;95622.88;;;15.82;100.00
12624;BME280;6377;42.836;23.998;2023-05-25T01:37:00;95631.47;;;15.90;100.00
12624;BME280;6377;42.836;23.998;2023-05-25T01:39:27;95624.22;;;15.97;100.00
12624;BME280;6377;42.836;23.998;2023-05-25T01:41:55;95631.94;;;16.18;100.00
12624;BME280;6377;42.836;23.998;2023-05-25T01:44:22;95635.53;;;16.37;100.00
12624;BME280;6377;42.836;23.998;2023-05-25T01:46:53;95637.06;;;16.51;100.00
12624;BME280;6377;42.836;23.998;2023-05-25T01:49:26;95635.97;;;16.65;100.00
12624;BME280;6377;42.836;23.998;2023-05-25T01:52:02;95639.56;;;16.77;100.00
12624;BME280;6377;42.836;23.998;2023-05-25T01:54:41;95634.81;;;16.79;100.00
12624;BME280;6377;42.836;23.998;2023-05-25T01:57:12;95623.72;;;16.83;100.00
12624;BME280;6377;42.836;23.998;2023-05-25T01:59:42;95641.88;;;16.99;100.00
12624;BME280;6377;42.836;23.998;2023-05-25T02:02:13;95638.47;;;16.85;100.00
12624;BME280;6377;42.836;23.998;2023-05-25T02:04:41;95585.34;;;16.46;100.00
12624;BME280;6377;42.836;23.998;2023-05-25T02:07:10;95639.63;;;16.71;100.00
12624;BME280;6377;42.836;23.998;2023-05-25T02:09:37;95618.69;;;16.37;100.00
12624;BME280;6377;42.836;23.998;2023-05-25T02:12:05;95557.78;;;15.96;100.00
12624;BME280;6377;42.836;23.998;2023-05-25T02:14:32;95648.72;;;16.63;100.00
12624;BME280;6377;42.836;23.998;2023-05-25T02:16:59;95646.44;;;16.67;100.00
12624;BME280;6377;42.836;23.998;2023-05-25T02:19:29;95623.47;;;16.59;100.00
12624;BME280;6377;42.836;23.998;2023-05-25T02:21:56;95646.38;;;16.73;100.00
12624;BME280;6377;42.836;23.998;2023-05-25T02:24:25;95641.44;;;16.39;100.00
12624;BME280;6377;42.836;23.998;2023-05-25T02:26:52;95647.38;;;16.10;100.00
12624;BME280;6377;42.836;23.998;2023-05-25T02:29:19;95648.50;;;15.83;100.00
12624;BME280;6377;42.836;23.998;2023-05-25T02:31:47;95657.81;;;15.67;100.00
12624;BME280;6377;42.836;23.998;2023-05-25T02:34:14;95646.91;;;15.68;100.00
12624;BME280;6377;42.836;23.998;2023-05-25T02:36:42;95651.81;;;15.85;100.00
12624;BME280;6377;42.836;23.998;2023-05-25T02:39:10;95614.78;;;15.44;100.00
12624;BME280;6377;42.836;23.998;2023-05-25T02:41:38;95662.72;;;15.70;100.00
12624;BME280;6377;42.836;23.998;2023-05-25T02:44:06;95605.56;;;15.46;100.00
12624;BME280;6377;42.836;23.998;2023-05-25T02:46:33;95664.91;;;15.86;100.00
12624;BME280;6377;42.836;23.998;2023-05-25T02:49:00;95667.50;;;16.06;100.00
12624;BME280;6377;42.836;23.998;2023-05-25T02:51:28;95670.16;;;16.06;100.00
12624;BME280;6377;42.836;23.998;2023-05-25T02:53:57;95669.38;;;16.05;100.00
12624;BME280;6377;42.836;23.998;2023-05-25T02:56:24;95670.34;;;16.11;100.00
12624;BME280;6377;42.836;23.998;2023-05-25T02:58:53;95669.28;;;16.18;100.00
12624;BME280;6377;42.836;23.998;2023-05-25T03:01:21;95674.44;;;16.13;100.00
12624;BME280;6377;42.836;23.998;2023-05-25T03:03:50;95673.88;;;16.05;100.00
12624;BME280;6377;42.836;23.998;2023-05-25T03:06:18;95677.84;;;15.83;100.00
12624;BME280;6377;42.836;23.998;2023-05-25T03:08:46;95682.16;;;15.84;100.00
12624;BME280;6377;42.836;23.998;2023-05-25T03:11:13;95693.41;;;15.86;100.00
12624;BME280;6377;42.836;23.998;2023-05-25T03:13:41;95686.06;;;15.88;100.00
12624;BME280;6377;42.836;23.998;2023-05-25T03:16:09;95675.22;;;15.69;100.00
12624;BME280;6377;42.836;23.998;2023-05-25T03:18:37;95682.00;;;15.72;100.00
12624;BME280;6377;42.836;23.998;2023-05-25T03:21:05;95691.81;;;15.72;100.00
12624;BME280;6377;42.836;23.998;2023-05-25T03:23:32;95679.91;;;15.74;100.00
12624;BME280;6377;42.836;23.998;2023-05-25T03:25:59;95680.75;;;15.68;100.00
12624;BME280;6377;42.836;23.998;2023-05-25T03:28:26;95683.59;;;15.80;100.00
12624;BME280;6377;42.836;23.998;2023-05-25T03:30:54;95684.59;;;15.92;100.00
12624;BME280;6377;42.836;23.998;2023-05-25T03:33:23;95683.91;;;16.03;100.00
12624;BME280;6377;42.836;23.998;2023-05-25T03:35:50;95689.66;;;16.06;100.00
12624;BME280;6377;42.836;23.998;2023-05-25T03:38:18;95681.06;;;16.04;100.00
12624;BME280;6377;42.836;23.998;2023-05-25T03:40:45;95685.94;;;16.14;100.00
12624;BME280;6377;42.836;23.998;2023-05-25T03:43:12;95690.03;;;16.16;100.00
12624;BME280;6377;42.836;23.998;2023-05-25T03:45:39;95680.34;;;16.29;100.00
12624;BME280;6377;42.836;23.998;2023-05-25T03:48:07;95690.09;;;16.41;100.00
12624;BME280;6377;42.836;23.998;2023-05-25T03:50:35;95692.56;;;16.43;100.00
12624;BME280;6377;42.836;23.998;2023-05-25T03:53:04;95689.25;;;16.47;100.00
12624;BME280;6377;42.836;23.998;2023-05-25T03:55:31;95692.63;;;16.30;100.00
12624;BME280;6377;42.836;23.998;2023-05-25T03:57:59;95695.56;;;16.15;100.00
12624;BME280;6377;42.836;23.998;2023-05-25T04:00:26;95701.16;;;16.00;100.00
12624;BME280;6377;42.836;23.998;2023-05-25T04:02:53;95689.94;;;15.85;100.00
12624;BME280;6377;42.836;23.998;2023-05-25T04:05:21;95692.16;;;16.01;100.00
12624;BME280;6377;42.836;23.998;2023-05-25T04:07:50;95693.31;;;16.18;100.00
12624;BME280;6377;42.836;23.998;2023-05-25T04:10:17;95700.88;;;16.21;100.00
12624;BME280;6377;42.836;23.998;2023-05-25T04:12:45;95697.97;;;16.30;100.00
12624;BME280;6377;42.836;23.998;2023-05-25T04:15:12;95701.84;;;16.34;100.00
12624;BME280;6377;42.836;23.998;2023-05-25T04:17:40;95697.31;;;16.41;100.00
12624;BME280;6377;42.836;23.998;2023-05-25T04:20:08;95697.66;;;16.51;100.00
12624;BME280;6377;42.836;23.998;2023-05-25T04:22:35;95702.13;;;16.63;100.00
12624;BME280;6377;42.836;23.998;2023-05-25T04:25:05;95697.78;;;16.69;100.00
12624;BME280;6377;42.836;23.998;2023-05-25T04:27:32;95708.00;;;16.78;100.00
12624;BME280;6377;42.836;23.998;2023-05-25T04:30:00;95711.53;;;16.72;100.00
12624;BME280;6377;42.836;23.998;2023-05-25T04:32:27;95708.38;;;16.82;100.00
12624;BME280;6377;42.836;23.998;2023-05-25T04:34:56;95712.66;;;16.90;100.00
12624;BME280;6377;42.836;23.998;2023-05-25T04:37:23;95706.63;;;16.94;100.00
12624;BME280;6377;42.836;23.998;2023-05-25T04:39:52;95710.47;;;17.05;100.00
12624;BME280;6377;42.836;23.998;2023-05-25T04:42:20;95708.94;;;17.15;100.00
12624;BME280;6377;42.836;23.998;2023-05-25T04:44:48;95677.69;;;16.91;100.00
12624;BME280;6377;42.836;23.998;2023-05-25T04:47:15;95722.91;;;17.17;100.00
12624;BME280;6377;42.836;23.998;2023-05-25T04:49:43;95719.00;;;17.20;100.00
12624;BME280;6377;42.836;23.998;2023-05-25T04:52:11;95724.56;;;17.18;100.00
12624;BME280;6377;42.836;23.998;2023-05-25T04:54:38;95730.50;;;17.20;100.00
12624;BME280;6377;42.836;23.998;2023-05-25T04:57:06;95633.28;;;16.65;100.00
12624;BME280;6377;42.836;23.998;2023-05-25T04:59:35;95734.97;;;17.26;100.00
12624;BME280;6377;42.836;23.998;2023-05-25T05:02:02;95728.16;;;17.30;100.00
12624;BME280;6377;42.836;23.998;2023-05-25T05:04:30;95732.84;;;17.35;100.00
12624;BME280;6377;42.836;23.998;2023-05-25T05:06:57;95729.09;;;17.43;100.00
12624;BME280;6377;42.836;23.998;2023-05-25T05:09:24;95735.06;;;17.38;100.00
12624;BME280;6377;42.836;23.998;2023-05-25T05:11:51;95736.03;;;17.25;100.00
12624;BME280;6377;42.836;23.998;2023-05-25T05:14:18;95659.41;;;16.63;100.00
12624;BME280;6377;42.836;23.998;2023-05-25T05:16:47;95743.56;;;17.04;100.00
12624;BME280;6377;42.836;23.998;2023-05-25T05:19:14;95736.47;;;17.22;100.00
12624;BME280;6377;42.836;23.998;2023-05-25T05:21:41;95739.75;;;17.18;100.00
12624;BME280;6377;42.836;23.998;2023-05-25T05:24:09;95719.25;;;17.12;100.00
12624;BME280;6377;42.836;23.998;2023-05-25T05:26:38;95674.34;;;16.71;100.00
12624;BME280;6377;42.836;23.998;2023-05-25T05:29:06;95741.31;;;16.76;100.00
12624;BME280;6377;42.836;23.998;2023-05-25T05:31:33;95710.03;;;16.39;100.00
12624;BME280;6377;42.836;23.998;2023-05-25T05:34:02;95736.88;;;16.50;100.00
12624;BME280;6377;42.836;23.998;2023-05-25T05:36:30;95757.47;;;16.37;100.00
12624;BME280;6377;42.836;23.998;2023-05-25T05:38:58;95747.66;;;16.31;100.00
12624;BME280;6377;42.836;23.998;2023-05-25T05:41:25;95753.81;;;16.31;100.00
12624;BME280;6377;42.836;23.998;2023-05-25T05:43:53;95656.56;;;15.76;100.00
12624;BME280;6377;42.836;23.998;2023-05-25T05:46:20;95752.53;;;16.47;100.00
12624;BME280;6377;42.836;23.998;2023-05-25T05:48:47;95746.72;;;16.56;100.00
12624;BME280;6377;42.836;23.998;2023-05-25T05:51:16;95747.88;;;16.73;100.00
12624;BME280;6377;42.836;23.998;2023-05-25T05:53:43;95694.38;;;16.55;100.00
12624;BME280;6377;42.836;23.998;2023-05-25T05:56:16;95740.34;;;16.95;100.00
12624;BME280;6377;42.836;23.998;2023-05-25T05:58:43;95742.47;;;16.87;100.00
12624;BME280;6377;42.836;23.998;2023-05-25T06:01:12;95739.84;;;16.73;100.00
12624;BME280;6377;42.836;23.998;2023-05-25T06:03:39;95744.19;;;16.74;100.00
12624;BME280;6377;42.836;23.998;2023-05-25T06:06:06;95607.66;;;15.89;100.00
12624;BME280;6377;42.836;23.998;2023-05-25T06:08:35;95746.97;;;16.86;100.00
12624;BME280;6377;42.836;23.998;2023-05-25T06:11:02;95749.03;;;16.91;100.00
12624;BME280;6377;42.836;23.998;2023-05-25T06:13:29;95788.06;;;16.85;100.00
12624;BME280;6377;42.836;23.998;2023-05-25T06:15:57;95771.63;;;16.44;100.00
12624;BME280;6377;42.836;23.998;2023-05-25T06:18:24;95800.13;;;16.56;100.00
12624;BME280;6377;42.836;23.998;2023-05-25T06:20:51;95803.22;;;16.60;100.00
12624;BME280;6377;42.836;23.998;2023-05-25T06:23:18;95801.19;;;16.55;100.00
12624;BME280;6377;42.836;23.998;2023-05-25T06:25:47;95809.41;;;16.54;100.00
12624;BME280;6377;42.836;23.998;2023-05-25T06:28:14;95793.25;;;16.29;100.00
12624;BME280;6377;42.836;23.998;2023-05-25T06:30:41;95815.31;;;16.62;100.00
12624;BME280;6377;42.836;23.998;2023-05-25T06:33:08;95828.22;;;16.72;100.00
12624;BME280;6377;42.836;23.998;2023-05-25T06:35:36;95806.03;;;16.71;100.00
12624;BME280;6377;42.836;23.998;2023-05-25T06:38:03;95823.78;;;16.97;100.00
12624;BME280;6377;42.836;23.998;2023-05-25T06:40:30;95662.16;;;16.06;100.00
12624;BME280;6377;42.836;23.998;2023-05-25T06:42:59;95802.19;;;16.99;100.00
12624;BME280;6377;42.836;23.998;2023-05-25T06:45:26;95833.06;;;17.26;100.00
12624;BME280;6377;42.836;23.998;2023-05-25T06:47:53;95831.00;;;17.28;100.00
12624;BME280;6377;42.836;23.998;2023-05-25T06:50:21;95839.44;;;17.25;100.00
12624;BME280;6377;42.836;23.998;2023-05-25T06:52:48;95840.06;;;17.20;100.00
12624;BME280;6377;42.836;23.998;2023-05-25T06:55:15;95736.06;;;16.56;100.00
12624;BME280;6377;42.836;23.998;2023-05-25T06:57:43;95838.22;;;17.21;100.00
12624;BME280;6377;42.836;23.998;2023-05-25T07:00:13;95844.63;;;17.20;100.00
12624;BME280;6377;42.836;23.998;2023-05-25T07:02:41;95789.31;;;16.83;100.00
12624;BME280;6377;42.836;23.998;2023-05-25T07:05:08;95849.47;;;17.29;100.00
12624;BME280;6377;42.836;23.998;2023-05-25T07:07:35;95850.22;;;17.43;100.00
12624;BME280;6377;42.836;23.998;2023-05-25T07:10:03;95828.91;;;17.30;100.00
12624;BME280;6377;42.836;23.998;2023-05-25T07:12:31;95852.41;;;17.59;100.00
12624;BME280;6377;42.836;23.998;2023-05-25T07:14:58;95850.09;;;17.63;100.00
12624;BME280;6377;42.836;23.998;2023-05-25T07:17:27;95853.81;;;17.62;100.00
12624;BME280;6377;42.836;23.998;2023-05-25T07:19:55;95856.16;;;17.76;100.00
12624;BME280;6377;42.836;23.998;2023-05-25T07:22:23;95846.00;;;17.85;100.00
12624;BME280;6377;42.836;23.998;2023-05-25T07:24:51;95845.81;;;17.86;100.00
12624;BME280;6377;42.836;23.998;2023-05-25T07:27:18;95849.34;;;17.80;100.00
12624;BME280;6377;42.836;23.998;2023-05-25T07:29:45;95848.75;;;17.78;100.00
12624;BME280;6377;42.836;23.998;2023-05-25T07:32:12;95835.81;;;17.75;100.00
12624;BME280;6377;42.836;23.998;2023-05-25T07:34:41;95789.47;;;17.50;100.00
12624;BME280;6377;42.836;23.998;2023-05-25T07:37:08;95830.38;;;17.82;100.00
12624;BME280;6377;42.836;23.998;2023-05-25T07:39:35;95829.34;;;17.83;100.00
12624;BME280;6377;42.836;23.998;2023-05-25T07:42:05;95833.78;;;17.71;100.00
12624;BME280;6377;42.836;23.998;2023-05-25T07:44:32;95834.06;;;17.63;100.00
12624;BME280;6377;42.836;23.998;2023-05-25T07:46:59;95827.97;;;17.49;100.00
12624;BME280;6377;42.836;23.998;2023-05-25T07:49:27;95822.97;;;17.53;100.00
12624;BME280;6377;42.836;23.998;2023-05-25T07:51:55;95824.91;;;17.46;100.00
12624;BME280;6377;42.836;23.998;2023-05-25T07:54:22;95818.91;;;17.50;100.00
12624;BME280;6377;42.836;23.998;2023-05-25T07:56:50;95808.50;;;17.35;100.00
12624;BME280;6377;42.836;23.998;2023-05-25T07:59:17;95804.81;;;17.36;100.00
12624;BME280;6377;42.836;23.998;2023-05-25T08:01:44;95803.72;;;17.19;100.00
12624;BME280;6377;42.836;23.998;2023-05-25T08:04:11;95801.91;;;17.13;100.00
12624;BME280;6377;42.836;23.998;2023-05-25T08:06:38;95640.06;;;15.92;100.00
12624;BME280;6377;42.836;23.998;2023-05-25T08:09:08;95800.22;;;16.88;100.00
12624;BME280;6377;42.836;23.998;2023-05-25T08:11:35;95807.44;;;16.80;100.00
12624;BME280;6377;42.836;23.998;2023-05-25T08:14:02;95803.38;;;16.65;100.00
12624;BME280;6377;42.836;23.998;2023-05-25T08:16:30;95808.94;;;16.63;100.00
12624;BME280;6377;42.836;23.998;2023-05-25T08:18:57;95726.72;;;16.27;100.00
12624;BME280;6377;42.836;23.998;2023-05-25T08:21:26;95798.19;;;16.76;100.00
12624;BME280;6377;42.836;23.998;2023-05-25T08:23:53;95747.56;;;16.50;100.00
12624;BME280;6377;42.836;23.998;2023-05-25T08:26:22;95760.91;;;16.50;100.00
12624;BME280;6377;42.836;23.998;2023-05-25T08:28:49;95792.41;;;16.79;100.00
12624;BME280;6377;42.836;23.998;2023-05-25T08:31:16;95790.25;;;17.01;100.00
12624;BME280;6377;42.836;23.998;2023-05-25T08:33:44;95796.09;;;17.23;100.00
12624;BME280;6377;42.836;23.998;2023-05-25T08:36:11;95708.13;;;16.90;100.00
12624;BME280;6377;42.836;23.998;2023-05-25T08:38:38;95778.59;;;17.52;100.00
12624;BME280;6377;42.836;23.998;2023-05-25T08:41:06;95783.06;;;17.82;100.00
12624;BME280;6377;42.836;23.998;2023-05-25T08:43:35;95774.63;;;18.04;100.00
12624;BME280;6377;42.836;23.998;2023-05-25T08:46:03;95778.84;;;18.29;100.00
12624;BME280;6377;42.836;23.998;2023-05-25T08:48:33;95770.88;;;18.41;100.00
12624;BME280;6377;42.836;23.998;2023-05-25T08:51:04;95782.44;;;18.60;100.00
12624;BME280;6377;42.836;23.998;2023-05-25T08:53:34;95637.09;;;17.86;100.00
12624;BME280;6377;42.836;23.998;2023-05-25T08:56:07;95772.47;;;18.96;100.00
12624;BME280;6377;42.836;23.998;2023-05-25T08:58:43;95776.28;;;19.19;100.00
12624;BME280;6377;42.836;23.998;2023-05-25T09:01:14;95771.84;;;19.24;100.00
12624;BME280;6377;42.836;23.998;2023-05-25T09:03:43;95785.38;;;19.59;100.00
12624;BME280;6377;42.836;23.998;2023-05-25T09:06:13;95771.84;;;19.77;100.00
12624;BME280;6377;42.836;23.998;2023-05-25T09:08:41;95777.78;;;20.02;100.00
12624;BME280;6377;42.836;23.998;2023-05-25T09:11:10;95773.94;;;20.22;100.00
12624;BME280;6377;42.836;23.998;2023-05-25T09:13:41;95797.16;;;20.51;100.00
12624;BME280;6377;42.836;23.998;2023-05-25T09:16:08;95802.91;;;20.83;100.00
12624;BME280;6377;42.836;23.998;2023-05-25T09:18:36;95777.72;;;21.00;100.00
12624;BME280;6377;42.836;23.998;2023-05-25T09:21:04;95776.66;;;21.13;100.00
12624;BME280;6377;42.836;23.998;2023-05-25T09:23:36;95778.50;;;21.12;100.00
12624;BME280;6377;42.836;23.998;2023-05-25T09:26:03;95776.56;;;20.96;100.00
12624;BME280;6377;42.836;23.998;2023-05-25T09:28:31;95777.69;;;20.84;100.00
12624;BME280;6377;42.836;23.998;2023-05-25T09:31:00;95751.88;;;20.71;100.00
12624;BME280;6377;42.836;23.998;2023-05-25T09:33:27;95789.44;;;20.94;100.00
12624;BME280;6377;42.836;23.998;2023-05-25T09:35:54;95777.94;;;21.10;100.00
12624;BME280;6377;42.836;23.998;2023-05-25T09:38:22;95774.25;;;21.45;100.00
12624;BME280;6377;42.836;23.998;2023-05-25T09:40:50;95778.00;;;21.77;100.00
12624;BME280;6377;42.836;23.998;2023-05-25T09:43:17;95790.41;;;22.11;100.00
12624;BME280;6377;42.836;23.998;2023-05-25T09:45:44;95779.09;;;22.31;100.00
12624;BME280;6377;42.836;23.998;2023-05-25T09:48:13;95780.28;;;22.40;100.00
12624;BME280;6377;42.836;23.998;2023-05-25T09:50:40;95779.03;;;22.26;100.00
12624;BME280;6377;42.836;23.998;2023-05-25T09:53:08;95790.38;;;22.28;100.00
12624;BME280;6377;42.836;23.998;2023-05-25T09:55:36;95775.78;;;22.24;100.00
12624;BME280;6377;42.836;23.998;2023-05-25T09:58:04;95783.31;;;22.44;100.00
12624;BME280;6377;42.836;23.998;2023-05-25T10:00:32;95729.75;;;22.09;100.00
12624;BME280;6377;42.836;23.998;2023-05-25T10:02:59;95795.25;;;22.69;100.00
12624;BME280;6377;42.836;23.998;2023-05-25T10:05:28;95784.78;;;22.95;100.00
12624;BME280;6377;42.836;23.998;2023-05-25T10:07:56;95786.41;;;23.22;98.89
12624;BME280;6377;42.836;23.998;2023-05-25T10:10:23;95776.94;;;23.41;95.17
12624;BME280;6377;42.836;23.998;2023-05-25T10:12:52;95755.28;;;23.36;96.77
12624;BME280;6377;42.836;23.998;2023-05-25T10:15:21;95772.72;;;23.51;100.00
12624;BME280;6377;42.836;23.998;2023-05-25T10:17:52;95746.72;;;23.76;89.01
12624;BME280;6377;42.836;23.998;2023-05-25T10:20:20;95762.66;;;23.78;95.49
12624;BME280;6377;42.836;23.998;2023-05-25T10:22:57;95756.84;;;23.32;95.92
12624;BME280;6377;42.836;23.998;2023-05-25T10:25:30;95752.56;;;23.36;99.73
12624;BME280;6377;42.836;23.998;2023-05-25T10:28:01;95743.41;;;23.69;93.56
12624;BME280;6377;42.836;23.998;2023-05-25T10:30:30;95749.84;;;23.95;92.76
12624;BME280;6377;42.836;23.998;2023-05-25T10:32:59;95740.78;;;24.16;90.20
12624;BME280;6377;42.836;23.998;2023-05-25T10:35:28;95743.97;;;24.55;84.91
12624;BME280;6377;42.836;23.998;2023-05-25T10:37:57;95692.81;;;24.38;78.75
12624;BME280;6377;42.836;23.998;2023-05-25T10:40:30;95705.88;;;24.67;76.05
12624;BME280;6377;42.836;23.998;2023-05-25T10:43:13;95738.78;;;25.00;78.86
12624;BME280;6377;42.836;23.998;2023-05-25T10:45:41;95567.41;;;23.77;77.55
12624;BME280;6377;42.836;23.998;2023-05-25T10:48:09;95705.16;;;24.81;77.75
12624;BME280;6377;42.836;23.998;2023-05-25T10:50:36;95707.41;;;25.25;74.39
12624;BME280;6377;42.836;23.998;2023-05-25T10:53:07;95703.94;;;25.80;71.72
12624;BME280;6377;42.836;23.998;2023-05-25T10:55:41;95720.69;;;26.17;68.25
12624;BME280;6377;42.836;23.998;2023-05-25T10:58:11;95659.69;;;26.04;61.79
12624;BME280;6377;42.836;23.998;2023-05-25T11:00:39;95555.22;;;25.68;61.08
12624;BME280;6377;42.836;23.998;2023-05-25T11:03:07;95712.84;;;26.15;60.62
12624;BME280;6377;42.836;23.998;2023-05-25T11:05:36;95680.38;;;25.65;60.81
12624;BME280;6377;42.836;23.998;2023-05-25T11:08:07;95639.09;;;25.98;57.36
12624;BME280;6377;42.836;23.998;2023-05-25T11:10:51;95637.19;;;26.73;53.28
12624;BME280;6377;42.836;23.998;2023-05-25T11:13:35;95688.00;;;26.62;53.20
12624;BME280;6377;42.836;23.998;2023-05-25T11:16:22;95671.47;;;26.54;53.09
12624;BME280;6377;42.836;23.998;2023-05-25T11:19:01;95690.94;;;26.66;53.13
12624;BME280;6377;42.836;23.998;2023-05-25T11:21:42;95631.53;;;25.95;53.88
12624;BME280;6377;42.836;23.998;2023-05-25T11:24:14;95687.03;;;26.28;54.91
12624;BME280;6377;42.836;23.998;2023-05-25T11:26:57;95682.53;;;25.83;53.22
12624;BME280;6377;42.836;23.998;2023-05-25T11:29:30;95670.91;;;25.63;52.71
12624;BME280;6377;42.836;23.998;2023-05-25T11:31:57;95682.50;;;25.78;52.03
12624;BME280;6377;42.836;23.998;2023-05-25T11:34:25;95682.94;;;26.31;51.26
12624;BME280;6377;42.836;23.998;2023-05-25T11:36:54;95694.44;;;26.82;51.84
12624;BME280;6377;42.836;23.998;2023-05-25T11:39:24;95684.41;;;26.82;49.84
12624;BME280;6377;42.836;23.998;2023-05-25T11:41:53;95675.56;;;26.46;50.34
12624;BME280;6377;42.836;23.998;2023-05-25T11:44:25;95628.63;;;26.51;48.91
12624;BME280;6377;42.836;23.998;2023-05-25T11:46:54;95508.34;;;25.68;49.55
12624;BME280;6377;42.836;23.998;2023-05-25T11:49:23;95663.63;;;27.01;48.82
12624;BME280;6377;42.836;23.998;2023-05-25T11:51:52;95557.72;;;26.24;48.56
12624;BME280;6377;42.836;23.998;2023-05-25T11:54:26;95690.19;;;27.53;47.01
12624;BME280;6377;42.836;23.998;2023-05-25T11:56:54;95640.13;;;26.87;45.70
12624;BME280;6377;42.836;23.998;2023-05-25T11:59:24;95524.41;;;26.62;45.91
12624;BME280;6377;42.836;23.998;2023-05-25T12:01:57;95672.06;;;28.06;44.24
12624;BME280;6377;42.836;23.998;2023-05-25T12:04:24;95515.19;;;26.97;46.41
12624;BME280;6377;42.836;23.998;2023-05-25T12:06:55;95549.25;;;27.13;44.22
12624;BME280;6377;42.836;23.998;2023-05-25T12:09:33;95647.41;;;27.93;43.52
12624;BME280;6377;42.836;23.998;2023-05-25T12:12:02;95617.69;;;27.49;44.09
12624;BME280;6377;42.836;23.998;2023-05-25T12:14:31;95674.19;;;28.09;44.04
12624;BME280;6377;42.836;23.998;2023-05-25T12:17:00;95646.06;;;28.43;41.98
12624;BME280;6377;42.836;23.998;2023-05-25T12:19:28;95617.38;;;28.92;40.53
12624;BME280;6377;42.836;23.998;2023-05-25T12:21:56;95656.00;;;29.13;42.35
12624;BME280;6377;42.836;23.998;2023-05-25T12:24:23;95644.28;;;29.13;39.82
12624;BME280;6377;42.836;23.998;2023-05-25T12:26:52;95549.38;;;28.87;39.67
12624;BME280;6377;42.836;23.998;2023-05-25T12:29:22;95640.88;;;29.58;42.04
12624;BME280;6377;42.836;23.998;2023-05-25T12:31:50;95638.94;;;29.08;44.16
12624;BME280;6377;42.836;23.998;2023-05-25T12:34:18;95633.47;;;28.89;43.33
12624;BME280;6377;42.836;23.998;2023-05-25T12:36:47;95630.88;;;28.36;43.09
12624;BME280;6377;42.836;23.998;2023-05-25T12:39:16;95635.53;;;28.12;45.03
12624;BME280;6377;42.836;23.998;2023-05-25T12:41:48;95611.56;;;27.91;46.84
12624;BME280;6377;42.836;23.998;2023-05-25T12:44:18;95625.81;;;27.77;44.76
12624;BME280;6377;42.836;23.998;2023-05-25T12:46:46;95593.69;;;27.85;47.05
12624;BME280;6377;42.836;23.998;2023-05-25T12:49:24;95596.44;;;28.08;44.49
12624;BME280;6377;42.836;23.998;2023-05-25T12:51:52;95618.50;;;28.02;44.95
12624;BME280;6377;42.836;23.998;2023-05-25T12:54:46;95619.44;;;27.63;43.69
12624;BME280;6377;42.836;23.998;2023-05-25T12:57:15;95610.81;;;26.89;49.31
12624;BME280;6377;42.836;23.998;2023-05-25T12:59:45;95612.16;;;26.86;50.61